Time;durP1;ratioP1;P1;durP2;ratioP2;P2;SDS_P1;SDS_P2;PMS_P1;PMS_P2;Temp;Humidity;BMP_temperature;BMP_pressure;BME280_temperature;BME280_humidity;BME280_pressure;Samples;Min_cycle;Max_cycle;Signal;HPM_P1;HPM_P2
2022/11/08 00:01:40;;;;;;;;;8.00;7.75;;;;;15.13;66.91;100359.25;2102160;28;46365;-63
2022/11/08 00:02:40;;;;;;;;;6.50;6.50;;;;;15.13;66.74;100353.06;2102257;27;46373;-62
2022/11/08 00:03:41;;;;;;;;;5.00;5.00;;;;;15.11;67.02;100354.91;2101285;27;46175;-63
2022/11/08 00:04:41;;;;;;;;;9.67;8.00;;;;;15.10;67.31;100356.72;2102462;28;46550;-62
2022/11/08 00:14:00;;;;;;;;;6.50;5.75;;;;;15.11;66.65;100341.53;2102028;27;46462;-62
2022/11/08 00:15:01;;;;;;;;;6.75;6.75;;;;;15.10;66.62;100337.13;2101865;27;45743;-63
2022/11/08 00:16:02;;;;;;;;;7.25;7.25;;;;;15.10;66.79;100338.00;2103489;27;46343;-62
2022/11/08 00:17:02;;;;;;;;;7.67;7.67;;;;;15.09;66.88;100330.06;2102405;27;46681;-61
2022/11/08 00:18:06;;;;;;;;;9.33;9.33;;;;;15.08;67.09;100333.66;2100857;27;46031;-62
2022/11/08 00:19:07;;;;;;;;;7.75;6.75;;;;;15.07;66.77;100327.47;2102567;28;46924;-62
2022/11/08 00:20:07;;;;;;;;;7.00;7.00;;;;;15.07;67.02;100329.25;2102202;27;46507;-64
2022/11/08 00:21:08;;;;;;;;;8.50;7.50;;;;;15.06;66.89;100330.19;2102030;28;47547;-64
2022/11/08 00:22:10;;;;;;;;;6.00;6.00;;;;;15.05;66.58;100324.00;2102184;28;46273;-62
2022/11/08 00:23:10;;;;;;;;;6.00;6.00;;;;;15.05;66.90;100318.66;2100880;27;46091;-63
2022/11/08 00:24:10;;;;;;;;;8.33;8.33;;;;;15.06;66.46;100322.19;2100507;28;46698;-63
2022/11/08 00:25:11;;;;;;;;;7.67;6.67;;;;;15.06;66.83;100316.84;2102906;27;46427;-63
2022/11/08 00:26:11;;;;;;;;;6.00;6.00;;;;;15.05;66.68;100320.47;2101426;27;46310;-63
2022/11/08 00:27:17;;;;;;;;;9.67;7.33;;;;;15.06;66.80;100316.84;2102927;27;46177;-63
2022/11/08 00:28:17;;;;;;;;;8.25;6.50;;;;;15.04;66.43;100311.56;2102623;28;46384;-62
2022/11/08 00:29:18;;;;;;;;;9.00;7.67;;;;;15.04;66.25;100308.91;2102552;27;46328;-61
2022/11/08 00:30:18;;;;;;;;;5.67;5.67;;;;;15.03;66.56;100304.50;2103001;27;46652;-64
2022/11/08 00:31:18;;;;;;;;;6.33;6.33;;;;;15.01;66.27;100307.25;2099260;28;46782;-62
2022/11/08 00:32:22;;;;;;;;;7.00;7.00;;;;;14.99;66.05;100303.78;2100768;28;46802;-64
2022/11/08 00:33:22;;;;;;;;;8.00;7.00;;;;;14.97;66.08;100302.97;2099470;28;46894;-64
2022/11/08 00:34:22;;;;;;;;;8.33;7.33;;;;;14.95;66.30;100304.84;2101572;28;46673;-63
2022/11/08 00:35:23;;;;;;;;;9.00;6.67;;;;;14.93;66.24;100297.84;2096492;28;47099;-62
2022/11/08 00:36:23;;;;;;;;;7.67;6.33;;;;;14.92;66.51;100299.66;2091745;28;46958;-63
2022/11/08 00:37:24;;;;;;;;;5.33;5.33;;;;;14.92;66.44;100294.31;2075892;28;45139;-63
2022/11/08 00:38:25;;;;;;;;;6.25;6.25;;;;;14.92;66.53;100296.09;2076736;28;45675;-63
2022/11/08 00:39:25;;;;;;;;;6.67;6.33;;;;;14.91;66.43;100283.69;2075563;28;46380;-63
2022/11/08 00:40:25;;;;;;;;;4.67;4.33;;;;;14.90;66.13;100284.63;2077382;28;46304;-61
2022/11/08 00:41:25;;;;;;;;;5.33;5.33;;;;;14.90;66.47;100276.63;2075002;28;46773;-61
2022/11/08 00:42:26;;;;;;;;;6.00;6.00;;;;;14.88;66.53;100270.47;2075809;28;46669;-63
2022/11/08 00:43:26;;;;;;;;;6.00;6.00;;;;;14.89;66.41;100275.75;2077224;28;45279;-61
2022/11/08 00:44:26;;;;;;;;;6.00;6.00;;;;;14.87;66.10;100271.41;2076644;28;45587;-62
2022/11/08 00:45:27;;;;;;;;;6.00;6.00;;;;;14.86;66.27;100267.84;2076718;28;46192;-61
2022/11/08 00:46:27;;;;;;;;;5.67;4.67;;;;;14.86;66.51;100259.84;2076953;28;46722;-61
2022/11/08 00:47:27;;;;;;;;;6.67;6.67;;;;;14.86;66.45;100264.31;2076917;28;46256;-63
2022/11/08 00:48:28;;;;;;;;;7.67;6.33;;;;;14.85;66.17;100266.13;2077446;28;46589;-61
2022/11/08 00:49:28;;;;;;;;;7.00;7.00;;;;;14.85;66.42;100259.91;2075192;28;46312;-62
2022/11/08 00:50:29;;;;;;;;;7.33;7.00;;;;;14.83;66.45;100251.97;2078822;28;46212;-63
2022/11/08 00:51:29;;;;;;;;;3.67;3.67;;;;;14.81;66.32;100248.50;2078838;28;45776;-61
2022/11/08 00:52:29;;;;;;;;;2.00;2.00;;;;;14.80;65.92;100254.78;2076621;28;46443;-63
2022/11/08 00:53:30;;;;;;;;;6.67;6.67;;;;;14.79;66.42;100249.53;2076712;28;46867;-61
2022/11/08 00:54:30;;;;;;;;;6.00;6.00;;;;;14.78;66.22;100247.78;2076201;28;45737;-62
2022/11/08 00:55:31;;;;;;;;;7.00;6.33;;;;;14.76;65.98;100245.19;2078096;28;46204;-62
2022/11/08 00:56:32;;;;;;;;;7.33;7.00;;;;;14.77;66.37;100241.59;2074825;28;46633;-64
2022/11/08 00:57:32;;;;;;;;;7.25;7.25;;;;;14.76;65.95;100239.84;2078077;28;46331;-64
2022/11/08 00:58:33;;;;;;;;;5.33;5.33;;;;;14.73;65.96;100243.50;2076840;28;46660;-62
2022/11/08 00:59:33;;;;;;;;;5.00;5.00;;;;;14.73;65.92;100242.66;2074016;28;46846;-61
2022/11/08 01:00:34;;;;;;;;;8.00;6.00;;;;;14.72;66.28;100241.78;2077298;28;45830;-62
2022/11/08 01:01:34;;;;;;;;;5.00;5.00;;;;;14.70;66.03;100232.13;2074188;28;45618;-62
2022/11/08 01:02:34;;;;;;;;;8.00;8.00;;;;;14.68;66.18;100239.34;2074112;28;46047;-63
2022/11/08 01:03:35;;;;;;;;;7.00;7.00;;;;;14.67;66.24;100250.97;2078874;28;46445;-61
2022/11/08 01:04:35;;;;;;;;;5.00;5.00;;;;;14.66;65.95;100241.22;2073952;28;46823;-62
2022/11/08 01:05:36;;;;;;;;;6.00;6.00;;;;;14.64;66.11;100249.31;2078229;28;45581;-62
2022/11/08 01:06:38;;;;;;;;;7.50;6.00;;;;;14.63;65.82;100241.38;2077196;28;46493;-62
2022/11/08 01:07:38;;;;;;;;;4.25;4.25;;;;;14.63;66.04;100241.38;2075262;28;46609;-62
2022/11/08 01:08:39;;;;;;;;;5.67;5.67;;;;;14.62;66.17;100251.19;2076703;28;46501;-63
2022/11/08 01:09:40;;;;;;;;;8.00;8.00;;;;;14.63;66.06;100238.69;2076428;28;46715;-61
2022/11/08 01:10:42;;;;;;;;;7.00;7.00;;;;;14.61;66.38;100243.22;2077586;28;46285;-60
2022/11/08 01:11:45;;;;;;;;;7.50;7.50;;;;;14.58;66.36;100235.34;2075526;28;46489;-62
2022/11/08 01:12:45;;;;;;;;;5.00;5.00;;;;;14.59;66.03;100231.75;2073988;28;46808;-62
2022/11/08 01:13:46;;;;;;;;;5.67;5.67;;;;;14.58;66.24;100230.00;2078491;28;47181;-62
2022/11/08 01:14:47;;;;;;;;;4.75;4.25;;;;;14.57;66.03;100234.47;2076972;28;46179;-63
2022/11/08 01:15:47;;;;;;;;;5.67;5.67;;;;;14.56;66.28;100235.41;2073473;28;45291;-61
2022/11/08 01:16:48;;;;;;;;;7.33;7.33;;;;;14.56;66.52;100222.06;2076688;28;47693;-62
2022/11/08 01:17:48;;;;;;;;;7.33;7.33;;;;;14.56;65.92;100218.53;2072783;28;46657;-62
2022/11/08 01:18:50;;;;;;;;;6.67;6.67;;;;;14.55;66.11;100231.03;2077611;28;46681;-63
2022/11/08 01:19:51;;;;;;;;;6.50;5.50;;;;;14.53;66.15;100229.38;2075574;28;46962;-63
2022/11/08 01:20:51;;;;;;;;;6.00;6.00;;;;;14.54;66.15;100217.75;2079341;28;46664;-62
2022/11/08 01:21:51;;;;;;;;;8.00;6.67;;;;;14.53;66.04;100240.91;2078904;28;46819;-61
2022/11/08 01:22:52;;;;;;;;;4.00;4.00;;;;;14.53;66.05;100238.25;2075842;28;45280;-62
2022/11/08 01:23:53;;;;;;;;;5.67;5.67;;;;;14.52;66.03;100236.50;2079093;28;46347;-61
2022/11/08 01:24:53;;;;;;;;;5.50;4.25;;;;;14.54;66.20;100233.75;2075382;28;46574;-63
2022/11/08 01:25:54;;;;;;;;;5.00;5.00;;;;;14.54;66.03;100234.63;2080509;28;46246;-62
2022/11/08 01:26:54;;;;;;;;;5.00;5.00;;;;;14.53;66.37;100224.03;2077249;28;45993;-62
2022/11/08 01:27:54;;;;;;;;;5.00;5.00;;;;;14.54;65.89;100231.09;2074006;28;46535;-62
2022/11/08 01:28:56;;;;;;;;;8.00;8.00;;;;;14.53;65.76;100218.69;2082011;28;46529;-63
2022/11/08 01:29:57;;;;;;;;;5.25;5.00;;;;;14.54;66.22;100209.72;2077833;28;46519;-63
2022/11/08 01:31:03;;;;;;;;;5.00;4.67;;;;;14.54;66.18;100225.75;2077542;28;46485;-61
2022/11/08 01:32:03;;;;;;;;;4.25;4.25;;;;;14.54;66.10;100217.75;2078899;28;45687;-64
2022/11/08 01:33:05;;;;;;;;;4.33;4.33;;;;;14.53;66.03;100216.88;2078575;28;46369;-62
2022/11/08 01:34:05;;;;;;;;;5.00;5.00;;;;;14.53;65.68;100218.69;2079524;28;46549;-62
2022/11/08 01:35:06;;;;;;;;;5.67;4.67;;;;;14.53;66.06;100213.34;2081621;28;46287;-62
2022/11/08 01:36:09;;;;;;;;;4.00;4.00;;;;;14.53;66.23;100216.00;2093574;28;46845;-62
2022/11/08 01:37:09;;;;;;;;;6.50;6.50;;;;;14.54;66.24;100215.06;2099992;28;46473;-63
2022/11/08 01:38:10;;;;;;;;;4.33;4.33;;;;;14.54;66.13;100215.94;2098987;27;46470;-64
2022/11/08 01:39:10;;;;;;;;;6.00;6.00;;;;;14.55;65.83;100212.31;2099268;28;46383;-63
2022/11/08 01:40:11;;;;;;;;;4.33;4.33;;;;;14.55;66.00;100215.00;2101901;27;46740;-64
2022/11/08 01:41:13;;;;;;;;;7.67;6.00;;;;;14.56;65.85;100210.53;2089082;28;46947;-62
2022/11/08 01:42:14;;;;;;;;;7.50;5.75;;;;;14.56;65.73;100218.53;2092247;28;46317;-63
2022/11/08 01:43:29;;;;;;;;;4.67;4.67;;;;;14.58;65.76;100222.00;2099151;28;47024;-62
2022/11/08 01:44:29;;;;;;;;;7.00;6.00;;;;;14.56;65.41;100222.06;2099206;27;46400;-63
2022/11/08 01:46:07;;;;;;;;;5.00;5.00;;;;;14.55;65.75;100223.00;2098094;28;46692;-62
2022/11/08 01:47:08;;;;;;;;;6.00;5.50;;;;;14.54;65.55;100225.75;2098850;28;46854;-63
2022/11/08 01:48:08;;;;;;;;;8.67;7.00;;;;;14.53;65.65;100224.03;2099878;28;46752;-62
2022/11/08 01:49:31;;;;;;;;;5.00;5.00;;;;;14.53;65.60;100214.22;2100303;27;46344;-62
2022/11/08 01:50:32;;;;;;;;;5.25;5.25;;;;;14.52;65.96;100217.81;2099684;28;46818;-61
2022/11/08 01:51:40;;;;;;;;;8.00;6.00;;;;;14.52;65.40;100209.81;2091948;28;46678;-63
2022/11/08 01:52:54;;;;;;;;;5.75;5.75;;;;;14.50;65.39;100200.13;2094539;28;46587;-62
2022/11/08 01:53:57;;;;;;;;;7.00;5.50;;;;;14.49;65.33;100207.28;2100188;27;47099;-61
2022/11/08 01:55:01;;;;;;;;;4.50;4.50;;;;;14.49;65.14;100201.94;2102435;28;46726;-62
2022/11/08 01:56:03;;;;;;;;;5.00;5.00;;;;;14.48;65.30;100202.00;2100357;28;46567;-63
2022/11/08 01:57:07;;;;;;;;;6.25;6.25;;;;;14.48;65.62;100202.00;2103592;27;46929;-63
2022/11/08 01:58:14;;;;;;;;;5.00;5.00;;;;;14.47;65.41;100200.25;2097899;28;47028;-63
2022/11/08 01:59:17;;;;;;;;;2.75;2.75;;;;;14.48;65.70;100192.16;2099964;28;47126;-64
2022/11/08 02:00:17;;;;;;;;;8.25;6.75;;;;;14.49;65.32;100191.25;2102146;28;46491;-61
2022/11/08 02:01:18;;;;;;;;;5.75;3.50;;;;;14.51;65.35;100193.84;2097705;28;46159;-61
2022/11/08 02:02:19;;;;;;;;;5.67;5.67;;;;;14.51;65.54;100199.19;2100132;27;46554;-63
2022/11/08 02:03:20;;;;;;;;;3.75;3.75;;;;;14.51;65.03;100192.06;2100738;28;46581;-62
2022/11/08 02:04:20;;;;;;;;;6.00;5.00;;;;;14.51;65.14;100185.84;2100577;28;46068;-64
2022/11/08 02:05:25;;;;;;;;;4.33;4.33;;;;;14.50;65.50;100186.78;2101881;27;46174;-63
2022/11/08 02:06:28;;;;;;;;;4.75;4.25;;;;;14.50;65.49;100186.78;2100950;28;47048;-63
2022/11/08 02:07:31;;;;;;;;;5.00;5.00;;;;;14.48;65.33;100185.97;2097555;27;46546;-61
2022/11/08 02:08:41;;;;;;;;;5.25;5.25;;;;;14.47;64.98;100181.56;2100680;27;45740;-61
2022/11/08 02:09:45;;;;;;;;;5.75;4.50;;;;;14.46;65.30;100180.69;2094535;28;46514;-64
2022/11/08 02:10:48;;;;;;;;;4.00;4.00;;;;;14.46;65.05;100179.84;2091261;28;46390;-62
2022/11/08 02:11:50;;;;;;;;;3.00;3.00;;;;;14.45;65.00;100178.09;2094934;28;46827;-62
2022/11/08 02:12:53;;;;;;;;;5.00;5.00;;;;;14.44;65.32;100171.91;2093837;28;46671;-63
2022/11/08 02:13:54;;;;;;;;;5.00;5.00;;;;;14.43;65.38;100179.00;2092420;28;46213;-62
2022/11/08 02:14:54;;;;;;;;;4.67;4.33;;;;;14.44;64.88;100179.91;2091915;28;46535;-61
2022/11/08 02:15:55;;;;;;;;;5.00;5.00;;;;;14.42;65.06;100177.28;2091973;28;46626;-63
2022/11/08 02:16:55;;;;;;;;;3.33;3.00;;;;;14.41;65.22;100169.34;2094445;28;46916;-62
2022/11/08 02:17:56;;;;;;;;;2.67;2.67;;;;;14.41;65.04;100180.03;2092653;28;46574;-61
2022/11/08 02:18:56;;;;;;;;;5.00;5.00;;;;;14.41;65.09;100177.34;2094305;28;46338;-61
2022/11/08 02:19:57;;;;;;;;;5.67;5.00;;;;;14.39;64.69;100163.22;2091405;28;46669;-64
2022/11/08 02:21:06;;;;;;;;;6.00;6.00;;;;;14.39;64.49;100156.06;2093055;28;45606;-63
2022/11/08 02:22:15;;;;;;;;;4.75;4.75;;;;;14.39;65.05;100164.09;2091010;28;46903;-62
2022/11/08 02:23:23;;;;;;;;;2.00;2.00;;;;;14.38;64.66;100158.81;2094407;28;46405;-61
2022/11/08 02:24:24;;;;;;;;;4.75;4.75;;;;;14.37;64.44;100143.75;2094210;28;45862;-62
2022/11/08 02:25:25;;;;;;;;;4.00;4.00;;;;;14.37;64.52;100149.09;2094198;28;46342;-62
2022/11/08 02:26:32;;;;;;;;;4.50;4.25;;;;;14.38;64.95;100145.47;2094120;27;46988;-62
2022/11/08 02:27:33;;;;;;;;;4.00;4.00;;;;;14.38;64.90;100143.66;2091266;28;46858;-61
2022/11/08 02:28:38;;;;;;;;;4.00;4.00;;;;;14.39;64.78;100155.22;2095133;28;46198;-63
2022/11/08 02:29:39;;;;;;;;;4.75;4.00;;;;;14.39;64.55;100144.53;2094401;28;45709;-63
2022/11/08 02:30:41;;;;;;;;;4.25;4.25;;;;;14.38;64.54;100141.00;2091903;28;46851;-61
2022/11/08 02:31:41;;;;;;;;;6.50;4.25;;;;;14.37;64.42;100133.06;2095779;28;46624;-62
2022/11/08 02:32:41;;;;;;;;;5.00;5.00;;;;;14.38;64.11;100130.31;2098309;28;46290;-62
2022/11/08 02:33:43;;;;;;;;;4.00;4.00;;;;;14.37;64.61;100120.59;2093810;27;46856;-63
2022/11/08 02:34:53;;;;;;;;;5.00;5.00;;;;;14.38;64.63;100126.78;2093888;27;46334;-62
2022/11/08 02:35:55;;;;;;;;;5.00;5.00;;;;;14.39;64.71;100118.69;2093685;28;46889;-62
2022/11/08 02:36:56;;;;;;;;;6.00;6.00;;;;;14.40;64.69;100119.56;2090118;28;45631;-63
2022/11/08 02:37:57;;;;;;;;;5.50;5.00;;;;;14.41;64.69;100114.16;2093229;28;46318;-62
2022/11/08 02:38:57;;;;;;;;;5.00;4.00;;;;;14.42;64.73;100112.34;2091754;28;46713;-62
2022/11/08 02:39:57;;;;;;;;;4.00;4.00;;;;;14.42;64.54;100107.88;2092487;28;46306;-63
2022/11/08 02:40:58;;;;;;;;;4.50;4.50;;;;;14.41;64.20;100108.81;2093373;28;46797;-61
2022/11/08 02:42:00;;;;;;;;;7.67;6.00;;;;;14.41;64.15;100118.63;2093287;28;46534;-62
2022/11/08 02:43:00;;;;;;;;;4.75;4.75;;;;;14.41;64.65;100111.47;2092797;28;46879;-62
2022/11/08 02:44:01;;;;;;;;;4.67;4.67;;;;;14.40;64.46;100104.41;2094958;28;46622;-62
2022/11/08 02:45:01;;;;;;;;;4.00;4.00;;;;;14.41;64.36;100110.63;2092911;28;46919;-62
2022/11/08 02:46:02;;;;;;;;;4.33;4.33;;;;;14.40;64.17;100109.75;2092330;28;46540;-62
2022/11/08 02:47:02;;;;;;;;;6.00;6.00;;;;;14.41;64.30;100110.63;2093516;28;46201;-63
2022/11/08 02:48:02;;;;;;;;;6.33;4.00;;;;;14.38;64.41;100116.97;2094790;28;46603;-63
2022/11/08 02:49:03;;;;;;;;;5.00;5.00;;;;;14.37;63.90;100120.59;2093736;28;45479;-63
2022/11/08 02:50:04;;;;;;;;;4.00;4.00;;;;;14.37;63.74;100109.03;2090239;28;46257;-62
2022/11/08 02:51:04;;;;;;;;;3.33;3.33;;;;;14.36;63.89;100115.31;2091362;28;46242;-63
2022/11/08 02:52:05;;;;;;;;;5.00;5.00;;;;;14.33;63.92;100110.97;2094220;28;45798;-62
2022/11/08 02:53:06;;;;;;;;;2.00;2.00;;;;;14.34;63.92;100118.03;2091461;28;46903;-62
2022/11/08 02:54:07;;;;;;;;;5.75;4.50;;;;;14.33;63.95;100113.63;2088777;28;47238;-62
2022/11/08 02:55:07;;;;;;;;;6.00;6.00;;;;;14.33;63.70;100113.63;2090582;28;46535;-63
2022/11/08 02:56:07;;;;;;;;;5.00;4.67;;;;;14.33;64.13;100105.63;2091319;28;46127;-63
2022/11/08 02:57:08;;;;;;;;;4.00;4.00;;;;;14.32;64.00;100098.56;2090872;28;46788;-62
2022/11/08 02:58:09;;;;;;;;;5.00;4.00;;;;;14.32;64.06;100097.69;2090447;28;46360;-64
2022/11/08 02:59:09;;;;;;;;;3.50;3.50;;;;;14.33;63.63;100110.09;2089096;28;47939;-62
2022/11/08 03:00:10;;;;;;;;;3.00;3.00;;;;;14.31;63.79;100102.16;2093219;28;48237;-61
2022/11/08 03:01:10;;;;;;;;;4.25;4.00;;;;;14.31;64.04;100104.84;2092966;28;46875;-63
2022/11/08 03:02:11;;;;;;;;;5.00;5.00;;;;;14.30;64.12;100097.78;2090272;28;46158;-63
2022/11/08 03:03:11;;;;;;;;;4.33;4.00;;;;;14.32;63.61;100100.38;2091408;28;46960;-62
2022/11/08 03:04:12;;;;;;;;;7.00;5.67;;;;;14.30;63.77;100100.44;2091760;28;46574;-62
2022/11/08 03:05:12;;;;;;;;;5.00;4.00;;;;;14.28;63.60;100099.66;2093030;28;46515;-62
2022/11/08 03:06:12;;;;;;;;;4.67;4.67;;;;;14.29;63.88;100097.84;2092060;28;46504;-62
2022/11/08 03:07:13;;;;;;;;;4.67;4.67;;;;;14.28;63.71;100088.97;2095069;28;46727;-62
2022/11/08 03:08:14;;;;;;;;;4.00;4.00;;;;;14.29;63.68;100098.72;2093558;28;46328;-61
2022/11/08 03:09:14;;;;;;;;;5.00;3.00;;;;;14.29;63.48;100097.84;2093091;28;45736;-62
2022/11/08 03:10:15;;;;;;;;;5.00;5.00;;;;;14.29;63.49;100103.19;2093109;28;45965;-62
2022/11/08 03:11:15;;;;;;;;;6.00;4.00;;;;;14.29;63.48;100092.50;2091695;28;46630;-63
2022/11/08 03:12:16;;;;;;;;;4.67;3.00;;;;;14.31;63.51;100090.63;2092807;28;46592;-61
2022/11/08 03:13:16;;;;;;;;;5.00;5.00;;;;;14.30;63.69;100110.25;2093129;28;46900;-62
2022/11/08 03:14:16;;;;;;;;;5.00;5.00;;;;;14.30;63.63;100099.56;2094642;28;46651;-63
2022/11/08 03:15:17;;;;;;;;;7.00;4.67;;;;;14.28;63.48;100096.97;2092034;28;46136;-61
2022/11/08 03:16:17;;;;;;;;;3.00;3.00;;;;;14.29;63.26;100105.84;2091844;28;46931;-64
2022/11/08 03:17:17;;;;;;;;;5.00;3.00;;;;;14.27;63.38;100105.94;2089783;28;46541;-61
2022/11/08 03:18:18;;;;;;;;;5.00;4.00;;;;;14.27;63.16;100108.59;2094617;28;46527;-63
2022/11/08 03:19:18;;;;;;;;;3.67;3.67;;;;;14.27;63.03;100102.41;2093040;28;46601;-62
2022/11/08 03:20:18;;;;;;;;;6.00;4.00;;;;;14.26;63.37;100104.19;2093602;28;45534;-62
2022/11/08 03:21:18;;;;;;;;;3.00;3.00;;;;;14.27;63.38;100102.41;2093194;28;46357;-62
2022/11/08 03:22:19;;;;;;;;;3.00;3.00;;;;;14.27;63.13;100097.06;2090068;28;46022;-60
2022/11/08 03:23:19;;;;;;;;;4.00;4.00;;;;;14.26;62.91;100104.19;2091911;28;46539;-62
2022/11/08 03:24:19;;;;;;;;;3.00;3.00;;;;;14.27;63.21;100105.94;2090307;28;46069;-62
2022/11/08 03:25:20;;;;;;;;;4.67;4.67;;;;;14.27;63.18;100089.91;2092559;28;46445;-62
2022/11/08 03:26:20;;;;;;;;;3.33;3.33;;;;;14.28;62.92;100114.81;2089762;28;47252;-63
2022/11/08 03:27:20;;;;;;;;;4.00;4.00;;;;;14.27;62.53;100116.59;2092174;28;46419;-62
2022/11/08 03:28:21;;;;;;;;;5.00;5.00;;;;;14.25;62.81;100117.63;2098019;27;46215;-62
2022/11/08 03:29:21;;;;;;;;;4.33;4.33;;;;;14.25;63.07;100123.81;2098994;27;46781;-62
2022/11/08 03:30:21;;;;;;;;;5.67;3.00;;;;;14.25;63.10;100123.81;2101826;27;46277;-63
2022/11/08 03:31:22;;;;;;;;;4.67;4.67;;;;;14.25;63.06;100117.63;2093128;27;45600;-61
2022/11/08 03:32:22;;;;;;;;;1.67;1.33;;;;;14.25;62.82;100114.94;2086481;28;45672;-63
2022/11/08 03:33:23;;;;;;;;;3.33;3.33;;;;;14.24;62.70;100108.75;2083427;28;46663;-62
2022/11/08 03:34:23;;;;;;;;;5.67;5.67;;;;;14.24;62.95;100108.75;2097072;28;46356;-63
2022/11/08 03:35:24;;;;;;;;;4.33;4.00;;;;;14.25;63.13;100114.94;2094271;28;46788;-62
2022/11/08 03:36:25;;;;;;;;;3.33;3.33;;;;;14.25;62.92;100106.94;2093884;28;46371;-62
2022/11/08 03:37:25;;;;;;;;;4.00;4.00;;;;;14.26;63.10;100114.00;2094798;28;46393;-62
2022/11/08 03:38:25;;;;;;;;;2.33;2.33;;;;;14.25;62.04;100098.94;2094431;28;46000;-63
2022/11/08 03:39:26;;;;;;;;;4.33;3.67;;;;;14.24;62.42;100108.75;2092283;28;46802;-63
2022/11/08 03:40:26;;;;;;;;;3.33;3.33;;;;;14.23;62.49;100106.13;2101743;27;46631;-61
2022/11/08 03:41:27;;;;;;;;;5.00;4.00;;;;;14.22;62.28;100104.38;2102784;27;45556;-62
2022/11/08 03:42:27;;;;;;;;;3.00;3.00;;;;;14.23;62.54;100109.69;2090812;28;46369;-62
2022/11/08 03:43:27;;;;;;;;;4.00;4.00;;;;;14.23;62.30;100106.13;2093173;28;46310;-62
2022/11/08 03:44:29;;;;;;;;;3.33;3.33;;;;;14.23;61.94;100104.34;2093561;28;45704;-61
2022/11/08 03:45:29;;;;;;;;;4.75;4.00;;;;;14.23;62.19;100107.03;2090689;28;46913;-63
2022/11/08 03:46:30;;;;;;;;;4.00;4.00;;;;;14.23;62.21;100101.69;2095631;28;46217;-60
2022/11/08 03:47:30;;;;;;;;;6.33;4.67;;;;;14.23;62.41;100095.44;2090713;28;46828;-63
2022/11/08 03:48:30;;;;;;;;;3.33;3.00;;;;;14.23;62.20;100093.69;2094895;28;46438;-62
2022/11/08 03:49:30;;;;;;;;;5.33;5.00;;;;;14.23;62.22;100090.09;2093446;28;47117;-62
2022/11/08 03:50:31;;;;;;;;;7.00;5.00;;;;;14.23;62.12;100093.69;2092797;28;46308;-62
2022/11/08 03:51:31;;;;;;;;;5.67;5.00;;;;;14.24;62.11;100091.88;2091653;28;45887;-62
2022/11/08 03:52:42;;;;;;;;;4.00;4.00;;;;;14.24;61.82;100098.06;2089229;28;46808;-62
2022/11/08 03:53:43;;;;;;;;;3.00;3.00;;;;;14.25;61.79;100096.28;2090997;28;45565;-62
2022/11/08 03:54:43;;;;;;;;;4.00;3.00;;;;;14.25;61.69;100089.13;2089713;28;46483;-62
2022/11/08 03:55:44;;;;;;;;;2.67;2.00;;;;;14.25;61.68;100094.47;2091875;28;46233;-61
2022/11/08 03:56:44;;;;;;;;;4.00;4.00;;;;;14.25;61.85;100102.47;2093337;28;46410;-61
2022/11/08 03:57:46;;;;;;;;;4.00;3.00;;;;;14.26;61.85;100093.53;2091442;28;46429;-63
2022/11/08 03:58:46;;;;;;;;;4.00;4.00;;;;;14.26;61.99;100106.00;2093638;28;48040;-64
2022/11/08 03:59:47;;;;;;;;;4.33;4.33;;;;;14.25;61.58;100104.28;2097034;27;46492;-63
2022/11/08 04:00:47;;;;;;;;;4.67;4.67;;;;;14.27;62.01;100107.72;2090775;28;46723;-64
2022/11/08 04:01:47;;;;;;;;;5.00;5.00;;;;;14.25;61.38;100097.13;2095286;28;46914;-60
2022/11/08 04:02:48;;;;;;;;;2.67;2.67;;;;;14.25;61.52;100099.81;2094666;28;46402;-61
2022/11/08 04:03:48;;;;;;;;;5.00;4.00;;;;;14.27;62.06;100110.41;2091092;28;46758;-62
2022/11/08 04:04:49;;;;;;;;;5.00;3.00;;;;;14.26;61.44;100098.00;2093082;28;46600;-62
2022/11/08 04:05:49;;;;;;;;;2.00;2.00;;;;;14.27;61.43;100102.41;2093380;28;45911;-61
2022/11/08 04:06:49;;;;;;;;;5.67;5.67;;;;;14.28;61.79;100101.47;2091802;28;46189;-63
2022/11/08 04:07:50;;;;;;;;;6.00;4.67;;;;;14.27;61.79;100100.59;2090697;28;46542;-63
2022/11/08 04:08:50;;;;;;;;;4.00;4.00;;;;;14.27;60.98;100099.72;2091438;28;46644;-60
2022/11/08 04:09:50;;;;;;;;;4.67;4.67;;;;;14.28;61.40;100098.78;2091179;28;46143;-64
2022/11/08 04:10:54;;;;;;;;;5.00;4.33;;;;;14.27;61.16;100102.41;2094234;28;46390;-63
2022/11/08 04:15:55;;;;;;;;;4.00;4.00;;;;;14.28;61.05;100099.66;2094576;28;46485;-61
2022/11/08 04:16:55;;;;;;;;;5.00;5.00;;;;;14.29;61.50;100097.84;2095151;28;45786;-61
2022/11/08 04:22:00;;;;;;;;;2.00;2.00;;;;;14.29;60.90;100097.84;2098142;28;46651;-62
2022/11/08 04:23:01;;;;;;;;;4.00;4.00;;;;;14.29;60.85;100095.19;2097618;28;46492;-61
2022/11/08 04:24:01;;;;;;;;;6.00;5.00;;;;;14.29;60.94;100100.50;2092005;28;46554;-62
2022/11/08 04:25:01;;;;;;;;;3.67;3.00;;;;;14.28;61.01;100094.31;2092430;28;46676;-61
2022/11/08 04:26:05;;;;;;;;;4.00;4.00;;;;;14.27;61.25;100095.25;2091583;28;46553;-62
2022/11/08 04:27:06;;;;;;;;;4.75;4.75;;;;;14.28;61.00;100093.44;2091405;28;47081;-63
2022/11/08 04:28:06;;;;;;;;;3.00;3.00;;;;;14.28;60.90;100101.47;2093875;28;47210;-62
2022/11/08 04:29:08;;;;;;;;;3.33;3.33;;;;;14.27;61.13;100113.94;2095739;28;46164;-63
2022/11/08 04:30:09;;;;;;;;;4.75;4.75;;;;;14.27;60.65;100097.91;2095287;28;46499;-62
2022/11/08 04:31:16;;;;;;;;;3.67;3.67;;;;;14.27;60.61;100097.06;2095013;28;45993;-63
2022/11/08 04:32:16;;;;;;;;;3.75;3.75;;;;;14.27;60.72;100102.41;2094286;28;48156;-63
2022/11/08 04:33:17;;;;;;;;;3.67;3.67;;;;;14.27;60.49;100105.94;2095260;28;46471;-62
2022/11/08 04:34:17;;;;;;;;;4.00;4.00;;;;;14.27;60.80;100108.59;2089921;28;47679;-63
2022/11/08 04:35:17;;;;;;;;;2.33;2.33;;;;;14.26;61.01;100111.34;2092321;28;45868;-62
2022/11/08 04:36:17;;;;;;;;;4.67;4.67;;;;;14.25;60.41;100110.47;2092511;28;46726;-63
2022/11/08 04:37:18;;;;;;;;;4.00;4.00;;;;;14.25;61.06;100097.13;2092173;28;46699;-62
2022/11/08 04:38:18;;;;;;;;;2.67;1.33;;;;;14.25;60.41;100093.59;2108312;27;46524;-62
2022/11/08 04:39:18;;;;;;;;;5.00;5.00;;;;;14.23;60.93;100088.34;2111830;27;47034;-63
2022/11/08 04:40:19;;;;;;;;;4.67;3.00;;;;;14.22;60.72;100091.91;2094054;28;46363;-62
2022/11/08 04:41:21;;;;;;;;;3.67;3.67;;;;;14.21;60.43;100092.84;2091481;28;45602;-63
2022/11/08 04:42:21;;;;;;;;;4.25;3.75;;;;;14.20;60.62;100103.59;2092516;28;46901;-62
2022/11/08 04:43:22;;;;;;;;;4.00;4.00;;;;;14.20;60.83;100101.81;2093584;28;46435;-63
2022/11/08 04:44:22;;;;;;;;;3.00;3.00;;;;;14.18;60.48;100093.00;2093341;28;47161;-63
2022/11/08 04:45:22;;;;;;;;;5.00;5.00;;;;;14.18;60.74;100092.13;2095752;27;46635;-62
2022/11/08 04:46:25;;;;;;;;;3.00;3.00;;;;;14.18;60.73;100101.00;2092514;28;45602;-62
2022/11/08 04:47:27;;;;;;;;;4.75;3.25;;;;;14.18;60.60;100095.66;2093093;28;46960;-63
2022/11/08 04:48:28;;;;;;;;;5.25;5.00;;;;;14.18;60.59;100092.13;2094408;28;46309;-62
2022/11/08 04:49:28;;;;;;;;;4.67;4.67;;;;;14.18;61.00;100100.16;2089933;28;45876;-62
2022/11/08 04:50:29;;;;;;;;;3.33;3.33;;;;;14.18;60.77;100094.81;2093072;28;46214;-63
2022/11/08 04:51:32;;;;;;;;;4.00;4.00;;;;;14.19;60.89;100096.53;2091082;28;46813;-62
2022/11/08 04:52:32;;;;;;;;;4.75;4.75;;;;;14.19;61.00;100096.53;2092366;28;46484;-63
2022/11/08 04:53:33;;;;;;;;;3.00;3.00;;;;;14.19;61.09;100094.72;2091858;28;46373;-62
2022/11/08 04:54:33;;;;;;;;;4.75;4.75;;;;;14.20;61.17;100100.94;2092810;28;45672;-63
2022/11/08 04:55:35;;;;;;;;;5.33;5.00;;;;;14.19;60.73;100097.41;2092755;28;46435;-62
2022/11/08 04:56:36;;;;;;;;;3.25;3.25;;;;;14.20;60.65;100098.25;2094200;28;46451;-62
2022/11/08 04:57:36;;;;;;;;;6.00;4.00;;;;;14.19;60.57;100096.53;2093929;28;46421;-62
2022/11/08 04:58:39;;;;;;;;;5.33;5.33;;;;;14.19;60.88;100100.06;2089614;28;46477;-62
2022/11/08 04:59:39;;;;;;;;;5.25;4.25;;;;;14.18;60.76;100098.34;2089398;28;46503;-60
2022/11/08 05:00:40;;;;;;;;;3.00;3.00;;;;;14.17;60.76;100104.63;2092467;28;45480;-62
2022/11/08 05:01:40;;;;;;;;;4.00;4.00;;;;;14.16;60.50;100094.03;2092444;28;47006;-62
2022/11/08 05:02:40;;;;;;;;;3.67;3.67;;;;;14.16;60.71;100099.34;2090317;28;46629;-62